sensor_id;sensor_type;location;lat;lon;timestamp;temperature;humidity
49385;DHT22;36795;45.028;38.968;2022-10-22T00:00:08;8.60;81.80
49385;DHT22;36795;45.028;38.968;2022-10-22T00:02:55;8.60;81.90
49385;DHT22;36795;45.028;38.968;2022-10-22T00:05:41;8.70;82.00
49385;DHT22;36795;45.028;38.968;2022-10-22T00:08:28;8.80;81.80
49385;DHT22;36795;45.028;38.968;2022-10-22T00:11:15;8.80;81.70
49385;DHT22;36795;45.028;38.968;2022-10-22T00:14:02;8.80;81.70
49385;DHT22;36795;45.028;38.968;2022-10-22T00:16:48;8.80;81.70
49385;DHT22;36795;45.028;38.968;2022-10-22T00:19:34;8.90;81.60
49385;DHT22;36795;45.028;38.968;2022-10-22T00:22:20;9.00;81.50
49385;DHT22;36795;45.028;38.968;2022-10-22T00:25:06;9.00;81.40
49385;DHT22;36795;45.028;38.968;2022-10-22T00:27:52;9.10;81.30
49385;DHT22;36795;45.028;38.968;2022-10-22T00:30:38;9.10;81.20
49385;DHT22;36795;45.028;38.968;2022-10-22T00:33:24;9.20;81.00
49385;DHT22;36795;45.028;38.968;2022-10-22T00:36:11;9.20;81.00
49385;DHT22;36795;45.028;38.968;2022-10-22T00:38:56;9.20;81.00
49385;DHT22;36795;45.028;38.968;2022-10-22T00:41:44;9.20;80.70
49385;DHT22;36795;45.028;38.968;2022-10-22T00:45:06;9.20;80.50
49385;DHT22;36795;45.028;38.968;2022-10-22T00:50:49;9.20;80.60
49385;DHT22;36795;45.028;38.968;2022-10-22T00:53:48;9.10;80.40
49385;DHT22;36795;45.028;38.968;2022-10-22T00:56:35;9.20;80.50
49385;DHT22;36795;45.028;38.968;2022-10-22T00:59:21;9.20;80.40
49385;DHT22;36795;45.028;38.968;2022-10-22T01:05:12;9.30;80.10
49385;DHT22;36795;45.028;38.968;2022-10-22T01:08:51;9.30;80.20
49385;DHT22;36795;45.028;38.968;2022-10-22T01:15:18;9.30;80.20
49385;DHT22;36795;45.028;38.968;2022-10-22T01:18:23;9.30;80.10
49385;DHT22;36795;45.028;38.968;2022-10-22T01:21:45;9.30;80.10
49385;DHT22;36795;45.028;38.968;2022-10-22T01:24:57;9.30;80.20
49385;DHT22;36795;45.028;38.968;2022-10-22T01:31:38;9.30;80.10
49385;DHT22;36795;45.028;38.968;2022-10-22T01:34:27;9.30;80.10
49385;DHT22;36795;45.028;38.968;2022-10-22T01:37:16;9.30;80.00
49385;DHT22;36795;45.028;38.968;2022-10-22T01:40:04;9.30;80.10
49385;DHT22;36795;45.028;38.968;2022-10-22T01:43:02;9.30;79.90
49385;DHT22;36795;45.028;38.968;2022-10-22T01:45:57;9.30;79.90
49385;DHT22;36795;45.028;38.968;2022-10-22T01:49:16;9.30;80.00
49385;DHT22;36795;45.028;38.968;2022-10-22T01:52:20;9.30;79.70
49385;DHT22;36795;45.028;38.968;2022-10-22T01:55:39;9.30;79.60
49385;DHT22;36795;45.028;38.968;2022-10-22T02:02:15;9.30;79.50
49385;DHT22;36795;45.028;38.968;2022-10-22T02:05:14;9.20;79.60
49385;DHT22;36795;45.028;38.968;2022-10-22T02:08:31;9.10;79.80
49385;DHT22;36795;45.028;38.968;2022-10-22T02:11:17;9.10;79.90
49385;DHT22;36795;45.028;38.968;2022-10-22T02:14:04;9.20;80.00
49385;DHT22;36795;45.028;38.968;2022-10-22T02:16:52;9.20;80.00
49385;DHT22;36795;45.028;38.968;2022-10-22T02:19:47;9.30;79.80
49385;DHT22;36795;45.028;38.968;2022-10-22T02:22:38;9.30;79.60
49385;DHT22;36795;45.028;38.968;2022-10-22T02:25:28;9.20;79.60
49385;DHT22;36795;45.028;38.968;2022-10-22T02:28:24;9.20;79.80
49385;DHT22;36795;45.028;38.968;2022-10-22T02:34:38;9.10;79.80
49385;DHT22;36795;45.028;38.968;2022-10-22T02:37:24;9.00;79.70
49385;DHT22;36795;45.028;38.968;2022-10-22T02:43:18;9.00;79.70
49385;DHT22;36795;45.028;38.968;2022-10-22T02:46:05;9.00;79.60
49385;DHT22;36795;45.028;38.968;2022-10-22T02:49:09;9.00;79.50
49385;DHT22;36795;45.028;38.968;2022-10-22T02:52:14;9.00;79.40
49385;DHT22;36795;45.028;38.968;2022-10-22T03:01:47;8.70;79.70
49385;DHT22;36795;45.028;38.968;2022-10-22T03:04:52;8.70;79.80
49385;DHT22;36795;45.028;38.968;2022-10-22T03:07:57;8.80;79.80
49385;DHT22;36795;45.028;38.968;2022-10-22T03:10:43;8.80;79.80
49385;DHT22;36795;45.028;38.968;2022-10-22T03:13:29;8.80;79.50
49385;DHT22;36795;45.028;38.968;2022-10-22T03:16:15;8.70;79.50
49385;DHT22;36795;45.028;38.968;2022-10-22T03:22:10;8.70;79.60
49385;DHT22;36795;45.028;38.968;2022-10-22T03:24:59;8.80;79.50
49385;DHT22;36795;45.028;38.968;2022-10-22T03:27:50;8.80;79.10
49385;DHT22;36795;45.028;38.968;2022-10-22T03:30:55;8.80;78.80
49385;DHT22;36795;45.028;38.968;2022-10-22T03:33:41;8.70;78.80
49385;DHT22;36795;45.028;38.968;2022-10-22T03:36:27;8.60;78.60
49385;DHT22;36795;45.028;38.968;2022-10-22T03:39:15;8.60;78.70
49385;DHT22;36795;45.028;38.968;2022-10-22T03:42:03;8.60;78.80
49385;DHT22;36795;45.028;38.968;2022-10-22T03:44:50;8.60;78.60
49385;DHT22;36795;45.028;38.968;2022-10-22T03:47:36;8.60;78.60
49385;DHT22;36795;45.028;38.968;2022-10-22T03:50:22;8.60;79.20
49385;DHT22;36795;45.028;38.968;2022-10-22T03:53:08;8.60;78.60
49385;DHT22;36795;45.028;38.968;2022-10-22T03:55:55;8.60;78.70
49385;DHT22;36795;45.028;38.968;2022-10-22T03:58:41;8.70;78.70
49385;DHT22;36795;45.028;38.968;2022-10-22T04:04:51;8.70;78.80
49385;DHT22;36795;45.028;38.968;2022-10-22T04:07:37;8.70;78.70
49385;DHT22;36795;45.028;38.968;2022-10-22T04:10:23;8.70;78.50
49385;DHT22;36795;45.028;38.968;2022-10-22T04:13:09;8.70;78.50
49385;DHT22;36795;45.028;38.968;2022-10-22T04:15:55;8.60;78.20
49385;DHT22;36795;45.028;38.968;2022-10-22T04:21:47;8.70;78.60
49385;DHT22;36795;45.028;38.968;2022-10-22T04:24:32;8.70;78.20
49385;DHT22;36795;45.028;38.968;2022-10-22T04:27:37;8.60;78.20
49385;DHT22;36795;45.028;38.968;2022-10-22T04:30:23;8.50;78.30
49385;DHT22;36795;45.028;38.968;2022-10-22T04:33:09;8.50;78.30
49385;DHT22;36795;45.028;38.968;2022-10-22T04:39:22;8.60;78.30
49385;DHT22;36795;45.028;38.968;2022-10-22T04:42:08;8.70;78.00
49385;DHT22;36795;45.028;38.968;2022-10-22T04:44:54;8.80;77.60
49385;DHT22;36795;45.028;38.968;2022-10-22T04:47:59;8.90;77.60
49385;DHT22;36795;45.028;38.968;2022-10-22T04:50:47;9.20;76.90
49385;DHT22;36795;45.028;38.968;2022-10-22T04:53:52;9.30;76.80
49385;DHT22;36795;45.028;38.968;2022-10-22T04:56:39;9.60;75.90
49385;DHT22;36795;45.028;38.968;2022-10-22T04:59:25;9.80;75.00
49385;DHT22;36795;45.028;38.968;2022-10-22T05:02:11;9.90;74.60
49385;DHT22;36795;45.028;38.968;2022-10-22T05:04:57;10.00;74.50
49385;DHT22;36795;45.028;38.968;2022-10-22T05:07:43;10.50;74.00
49385;DHT22;36795;45.028;38.968;2022-10-22T05:10:29;10.80;72.30
49385;DHT22;36795;45.028;38.968;2022-10-22T05:13:15;10.70;71.70
49385;DHT22;36795;45.028;38.968;2022-10-22T05:16:01;10.90;71.30
49385;DHT22;36795;45.028;38.968;2022-10-22T05:18:47;11.00;70.50
49385;DHT22;36795;45.028;38.968;2022-10-22T05:21:33;10.70;70.20
49385;DHT22;36795;45.028;38.968;2022-10-22T05:24:20;10.60;70.70
49385;DHT22;36795;45.028;38.968;2022-10-22T05:27:06;10.50;71.10
49385;DHT22;36795;45.028;38.968;2022-10-22T05:29:52;10.70;70.80
49385;DHT22;36795;45.028;38.968;2022-10-22T05:32:38;11.30;69.70
49385;DHT22;36795;45.028;38.968;2022-10-22T05:35:24;12.10;67.70
49385;DHT22;36795;45.028;38.968;2022-10-22T05:38:10;12.40;66.10
49385;DHT22;36795;45.028;38.968;2022-10-22T05:41:08;12.20;66.10
49385;DHT22;36795;45.028;38.968;2022-10-22T05:43:58;12.00;66.30
49385;DHT22;36795;45.028;38.968;2022-10-22T05:46:44;11.80;66.50
49385;DHT22;36795;45.028;38.968;2022-10-22T05:49:30;11.70;67.30
49385;DHT22;36795;45.028;38.968;2022-10-22T05:52:17;11.90;67.30
49385;DHT22;36795;45.028;38.968;2022-10-22T05:55:02;12.30;66.20
49385;DHT22;36795;45.028;38.968;2022-10-22T05:57:49;12.60;65.30
49385;DHT22;36795;45.028;38.968;2022-10-22T06:00:35;12.80;64.40
49385;DHT22;36795;45.028;38.968;2022-10-22T06:03:21;13.50;62.90
49385;DHT22;36795;45.028;38.968;2022-10-22T06:06:23;14.20;61.20
49385;DHT22;36795;45.028;38.968;2022-10-22T06:09:21;15.70;57.50
49385;DHT22;36795;45.028;38.968;2022-10-22T06:12:07;16.80;53.90
49385;DHT22;36795;45.028;38.968;2022-10-22T06:14:55;17.50;51.80
49385;DHT22;36795;45.028;38.968;2022-10-22T06:17:43;18.30;49.70
49385;DHT22;36795;45.028;38.968;2022-10-22T06:20:29;18.40;48.70
49385;DHT22;36795;45.028;38.968;2022-10-22T06:23:15;17.10;50.10
49385;DHT22;36795;45.028;38.968;2022-10-22T06:26:01;15.70;52.80
49385;DHT22;36795;45.028;38.968;2022-10-22T06:28:47;14.70;55.30
49385;DHT22;36795;45.028;38.968;2022-10-22T06:31:34;14.20;56.60
49385;DHT22;36795;45.028;38.968;2022-10-22T06:34:22;14.00;57.00
49385;DHT22;36795;45.028;38.968;2022-10-22T06:37:09;13.70;57.40
49385;DHT22;36795;45.028;38.968;2022-10-22T06:39:55;13.60;57.80
49385;DHT22;36795;45.028;38.968;2022-10-22T06:42:41;14.10;57.10
49385;DHT22;36795;45.028;38.968;2022-10-22T06:45:27;15.40;54.90
49385;DHT22;36795;45.028;38.968;2022-10-22T06:48:13;16.60;51.30
49385;DHT22;36795;45.028;38.968;2022-10-22T06:51:11;16.30;50.40
49385;DHT22;36795;45.028;38.968;2022-10-22T06:53:58;16.40;50.60
49385;DHT22;36795;45.028;38.968;2022-10-22T06:56:43;18.60;47.40
49385;DHT22;36795;45.028;38.968;2022-10-22T06:59:30;21.40;42.70
49385;DHT22;36795;45.028;38.968;2022-10-22T07:02:16;23.10;39.10
49385;DHT22;36795;45.028;38.968;2022-10-22T07:05:02;24.40;36.70
49385;DHT22;36795;45.028;38.968;2022-10-22T07:07:48;24.80;35.00
49385;DHT22;36795;45.028;38.968;2022-10-22T07:10:34;25.10;34.70
49385;DHT22;36795;45.028;38.968;2022-10-22T07:13:20;26.00;34.30
49385;DHT22;36795;45.028;38.968;2022-10-22T07:16:07;26.30;33.10
49385;DHT22;36795;45.028;38.968;2022-10-22T07:18:53;26.10;32.70
49385;DHT22;36795;45.028;38.968;2022-10-22T07:21:40;25.90;32.30
49385;DHT22;36795;45.028;38.968;2022-10-22T07:24:26;25.70;32.00
49385;DHT22;36795;45.028;38.968;2022-10-22T07:27:12;25.90;32.20
49385;DHT22;36795;45.028;38.968;2022-10-22T07:29:58;26.20;31.60
49385;DHT22;36795;45.028;38.968;2022-10-22T07:32:46;25.70;32.20
49385;DHT22;36795;45.028;38.968;2022-10-22T07:35:32;25.30;32.00
49385;DHT22;36795;45.028;38.968;2022-10-22T07:38:19;25.00;32.50
49385;DHT22;36795;45.028;38.968;2022-10-22T07:41:05;25.10;32.30
49385;DHT22;36795;45.028;38.968;2022-10-22T07:43:51;26.00;31.70
49385;DHT22;36795;45.028;38.968;2022-10-22T07:46:37;27.10;30.90
49385;DHT22;36795;45.028;38.968;2022-10-22T07:49:23;27.30;30.40
49385;DHT22;36795;45.028;38.968;2022-10-22T07:52:09;27.40;30.50
49385;DHT22;36795;45.028;38.968;2022-10-22T07:54:55;27.60;29.90
49385;DHT22;36795;45.028;38.968;2022-10-22T07:57:41;27.70;29.80
49385;DHT22;36795;45.028;38.968;2022-10-22T08:00:27;27.70;29.90
49385;DHT22;36795;45.028;38.968;2022-10-22T08:03:15;28.40;29.50
49385;DHT22;36795;45.028;38.968;2022-10-22T08:06:01;28.30;29.20
49385;DHT22;36795;45.028;38.968;2022-10-22T08:08:47;27.90;29.20
49385;DHT22;36795;45.028;38.968;2022-10-22T08:11:33;27.60;29.60
49385;DHT22;36795;45.028;38.968;2022-10-22T08:14:19;27.30;29.70
49385;DHT22;36795;45.028;38.968;2022-10-22T08:17:05;28.50;29.20
49385;DHT22;36795;45.028;38.968;2022-10-22T08:19:52;30.00;28.60
49385;DHT22;36795;45.028;38.968;2022-10-22T08:22:37;31.50;27.10
49385;DHT22;36795;45.028;38.968;2022-10-22T08:25:24;32.40;26.40
49385;DHT22;36795;45.028;38.968;2022-10-22T08:28:10;32.90;26.00
49385;DHT22;36795;45.028;38.968;2022-10-22T08:30:56;33.20;25.50
49385;DHT22;36795;45.028;38.968;2022-10-22T08:33:42;33.70;25.40
49385;DHT22;36795;45.028;38.968;2022-10-22T08:36:28;34.10;25.10
49385;DHT22;36795;45.028;38.968;2022-10-22T08:39:14;34.00;25.30
49385;DHT22;36795;45.028;38.968;2022-10-22T08:45:12;33.50;25.20
49385;DHT22;36795;45.028;38.968;2022-10-22T08:51:28;33.70;24.60
49385;DHT22;36795;45.028;38.968;2022-10-22T08:54:35;33.50;24.70
49385;DHT22;36795;45.028;38.968;2022-10-22T08:57:55;32.90;24.90
49385;DHT22;36795;45.028;38.968;2022-10-22T09:01:02;33.30;24.60
49385;DHT22;36795;45.028;38.968;2022-10-22T09:03:56;33.10;24.40
49385;DHT22;36795;45.028;38.968;2022-10-22T09:06:44;31.00;25.00
49385;DHT22;36795;45.028;38.968;2022-10-22T09:09:33;27.60;27.10
49385;DHT22;36795;45.028;38.968;2022-10-22T09:12:21;24.70;29.50
49385;DHT22;36795;45.028;38.968;2022-10-22T09:15:14;23.00;31.40
49385;DHT22;36795;45.028;38.968;2022-10-22T09:18:29;21.80;33.00
49385;DHT22;36795;45.028;38.968;2022-10-22T09:21:28;20.80;34.30
49385;DHT22;36795;45.028;38.968;2022-10-22T09:24:36;20.00;35.70
49385;DHT22;36795;45.028;38.968;2022-10-22T09:27:27;19.40;36.30
49385;DHT22;36795;45.028;38.968;2022-10-22T09:30:19;19.00;37.30
49385;DHT22;36795;45.028;38.968;2022-10-22T09:36:02;18.80;37.80
49385;DHT22;36795;45.028;38.968;2022-10-22T09:38:52;18.80;38.10
49385;DHT22;36795;45.028;38.968;2022-10-22T09:41:38;18.80;38.40
49385;DHT22;36795;45.028;38.968;2022-10-22T09:44:24;19.10;38.00
49385;DHT22;36795;45.028;38.968;2022-10-22T09:47:40;19.30;37.80
49385;DHT22;36795;45.028;38.968;2022-10-22T09:50:34;19.60;37.90
49385;DHT22;36795;45.028;38.968;2022-10-22T09:53:29;19.70;37.80
49385;DHT22;36795;45.028;38.968;2022-10-22T09:56:26;21.00;36.30
49385;DHT22;36795;45.028;38.968;2022-10-22T09:59:14;22.70;33.80
49385;DHT22;36795;45.028;38.968;2022-10-22T10:02:05;23.60;32.20
49385;DHT22;36795;45.028;38.968;2022-10-22T10:04:54;24.00;32.10
49385;DHT22;36795;45.028;38.968;2022-10-22T10:07:40;25.00;31.10
49385;DHT22;36795;45.028;38.968;2022-10-22T10:11:00;26.30;30.30
49385;DHT22;36795;45.028;38.968;2022-10-22T10:17:11;27.50;28.20
49385;DHT22;36795;45.028;38.968;2022-10-22T10:23:23;25.70;29.60
49385;DHT22;36795;45.028;38.968;2022-10-22T10:26:26;23.90;31.30
49385;DHT22;36795;45.028;38.968;2022-10-22T10:29:35;22.60;33.40
49385;DHT22;36795;45.028;38.968;2022-10-22T10:36:03;21.00;36.20
49385;DHT22;36795;45.028;38.968;2022-10-22T10:39:29;20.70;37.20
49385;DHT22;36795;45.028;38.968;2022-10-22T10:45:09;22.10;36.20
49385;DHT22;36795;45.028;38.968;2022-10-22T10:48:25;23.80;33.60
49385;DHT22;36795;45.028;38.968;2022-10-22T10:54:40;26.00;30.00
49385;DHT22;36795;45.028;38.968;2022-10-22T10:57:38;26.70;29.40
49385;DHT22;36795;45.028;38.968;2022-10-22T11:00:25;27.60;28.70
49385;DHT22;36795;45.028;38.968;2022-10-22T11:03:32;28.10;28.50
49385;DHT22;36795;45.028;38.968;2022-10-22T11:06:20;28.30;28.30
49385;DHT22;36795;45.028;38.968;2022-10-22T11:12:41;27.20;28.10
49385;DHT22;36795;45.028;38.968;2022-10-22T11:15:35;26.70;28.70
49385;DHT22;36795;45.028;38.968;2022-10-22T11:18:36;25.80;29.50
49385;DHT22;36795;45.028;38.968;2022-10-22T11:21:31;24.60;30.60
49385;DHT22;36795;45.028;38.968;2022-10-22T11:24:25;23.80;32.30
49385;DHT22;36795;45.028;38.968;2022-10-22T11:27:41;24.10;32.50
49385;DHT22;36795;45.028;38.968;2022-10-22T11:30:33;25.80;30.90
49385;DHT22;36795;45.028;38.968;2022-10-22T11:33:27;26.80;29.40
49385;DHT22;36795;45.028;38.968;2022-10-22T11:36:14;26.80;29.00
49385;DHT22;36795;45.028;38.968;2022-10-22T11:39:02;26.40;29.70
49385;DHT22;36795;45.028;38.968;2022-10-22T11:41:52;25.90;30.00
49385;DHT22;36795;45.028;38.968;2022-10-22T11:44:57;25.30;30.50
49385;DHT22;36795;45.028;38.968;2022-10-22T11:47:56;25.00;30.90
49385;DHT22;36795;45.028;38.968;2022-10-22T11:53:41;26.60;29.60
49385;DHT22;36795;45.028;38.968;2022-10-22T11:56:36;26.50;29.70
49385;DHT22;36795;45.028;38.968;2022-10-22T12:02:42;25.40;30.40
49385;DHT22;36795;45.028;38.968;2022-10-22T12:05:33;25.30;31.00
49385;DHT22;36795;45.028;38.968;2022-10-22T12:08:22;25.90;30.60
49385;DHT22;36795;45.028;38.968;2022-10-22T12:14:21;28.10;28.90
49385;DHT22;36795;45.028;38.968;2022-10-22T12:17:15;29.40;28.00
49385;DHT22;36795;45.028;38.968;2022-10-22T12:20:12;30.50;27.70
49385;DHT22;36795;45.028;38.968;2022-10-22T12:22:59;31.20;27.00
49385;DHT22;36795;45.028;38.968;2022-10-22T12:25:45;31.70;26.90
49385;DHT22;36795;45.028;38.968;2022-10-22T12:28:40;32.10;26.80
49385;DHT22;36795;45.028;38.968;2022-10-22T12:31:27;32.90;26.20
49385;DHT22;36795;45.028;38.968;2022-10-22T12:34:16;32.60;26.10
49385;DHT22;36795;45.028;38.968;2022-10-22T12:37:03;30.50;26.70
49385;DHT22;36795;45.028;38.968;2022-10-22T12:39:50;27.80;28.40
49385;DHT22;36795;45.028;38.968;2022-10-22T12:42:36;25.40;30.00
49385;DHT22;36795;45.028;38.968;2022-10-22T12:45:26;23.50;32.00
49385;DHT22;36795;45.028;38.968;2022-10-22T12:51:07;21.40;35.40
49385;DHT22;36795;45.028;38.968;2022-10-22T12:53:56;20.90;36.20
49385;DHT22;36795;45.028;38.968;2022-10-22T12:56:43;21.50;35.90
49385;DHT22;36795;45.028;38.968;2022-10-22T12:59:36;21.90;35.30
49385;DHT22;36795;45.028;38.968;2022-10-22T13:02:25;22.00;35.40
49385;DHT22;36795;45.028;38.968;2022-10-22T13:08:10;22.10;35.50
49385;DHT22;36795;45.028;38.968;2022-10-22T13:11:07;23.00;34.30
49385;DHT22;36795;45.028;38.968;2022-10-22T13:14:17;22.80;34.30
49385;DHT22;36795;45.028;38.968;2022-10-22T13:17:18;21.60;35.50
49385;DHT22;36795;45.028;38.968;2022-10-22T13:20:18;20.60;36.90
49385;DHT22;36795;45.028;38.968;2022-10-22T13:23:05;19.90;38.10
49385;DHT22;36795;45.028;38.968;2022-10-22T13:26:00;19.50;38.70
49385;DHT22;36795;45.028;38.968;2022-10-22T13:28:55;19.00;39.30
49385;DHT22;36795;45.028;38.968;2022-10-22T13:31:47;18.70;40.00
49385;DHT22;36795;45.028;38.968;2022-10-22T13:34:33;18.30;40.80
49385;DHT22;36795;45.028;38.968;2022-10-22T13:37:21;18.10;41.30
49385;DHT22;36795;45.028;38.968;2022-10-22T13:40:11;17.80;41.80
49385;DHT22;36795;45.028;38.968;2022-10-22T13:42:58;17.60;42.30
49385;DHT22;36795;45.028;38.968;2022-10-22T13:45:44;17.50;42.60
49385;DHT22;36795;45.028;38.968;2022-10-22T13:48:32;17.40;42.50
49385;DHT22;36795;45.028;38.968;2022-10-22T13:51:23;17.30;42.60
49385;DHT22;36795;45.028;38.968;2022-10-22T13:54:15;17.30;43.00
49385;DHT22;36795;45.028;38.968;2022-10-22T13:57:07;17.10;43.20
49385;DHT22;36795;45.028;38.968;2022-10-22T13:59:54;17.00;43.50
49385;DHT22;36795;45.028;38.968;2022-10-22T14:02:40;16.80;43.80
49385;DHT22;36795;45.028;38.968;2022-10-22T14:05:26;16.60;44.30
49385;DHT22;36795;45.028;38.968;2022-10-22T14:08:17;16.50;44.70
49385;DHT22;36795;45.028;38.968;2022-10-22T14:11:03;16.40;45.10
49385;DHT22;36795;45.028;38.968;2022-10-22T14:13:49;16.30;45.40
49385;DHT22;36795;45.028;38.968;2022-10-22T14:16:36;16.20;45.70
49385;DHT22;36795;45.028;38.968;2022-10-22T14:19:22;16.00;46.20
49385;DHT22;36795;45.028;38.968;2022-10-22T14:22:13;15.90;46.70
49385;DHT22;36795;45.028;38.968;2022-10-22T14:24:59;15.80;47.00
49385;DHT22;36795;45.028;38.968;2022-10-22T14:27:46;15.80;47.40
49385;DHT22;36795;45.028;38.968;2022-10-22T14:30:32;15.70;47.50
49385;DHT22;36795;45.028;38.968;2022-10-22T14:33:28;15.60;47.80
49385;DHT22;36795;45.028;38.968;2022-10-22T14:36:16;15.50;48.20
49385;DHT22;36795;45.028;38.968;2022-10-22T14:39:06;15.40;48.40
49385;DHT22;36795;45.028;38.968;2022-10-22T14:41:52;15.30;48.60
49385;DHT22;36795;45.028;38.968;2022-10-22T14:44:39;15.30;49.00
49385;DHT22;36795;45.028;38.968;2022-10-22T14:47:25;15.20;49.40
49385;DHT22;36795;45.028;38.968;2022-10-22T14:50:11;15.10;49.70
49385;DHT22;36795;45.028;38.968;2022-10-22T14:52:58;15.10;49.90
49385;DHT22;36795;45.028;38.968;2022-10-22T14:55:45;15.00;50.20
49385;DHT22;36795;45.028;38.968;2022-10-22T14:58:33;15.00;50.40
49385;DHT22;36795;45.028;38.968;2022-10-22T15:01:19;14.90;50.80
49385;DHT22;36795;45.028;38.968;2022-10-22T15:04:05;14.90;50.90
49385;DHT22;36795;45.028;38.968;2022-10-22T15:06:51;14.80;51.20
49385;DHT22;36795;45.028;38.968;2022-10-22T15:09:40;14.80;51.50
49385;DHT22;36795;45.028;38.968;2022-10-22T15:12:27;14.70;51.70
49385;DHT22;36795;45.028;38.968;2022-10-22T15:15:13;14.70;52.00
49385;DHT22;36795;45.028;38.968;2022-10-22T15:17:59;14.60;52.00
49385;DHT22;36795;45.028;38.968;2022-10-22T15:20:45;14.60;51.90
49385;DHT22;36795;45.028;38.968;2022-10-22T15:23:39;14.60;52.10
49385;DHT22;36795;45.028;38.968;2022-10-22T15:26:24;14.60;52.30
49385;DHT22;36795;45.028;38.968;2022-10-22T15:29:10;14.50;52.50
49385;DHT22;36795;45.028;38.968;2022-10-22T15:31:57;14.50;52.60
49385;DHT22;36795;45.028;38.968;2022-10-22T15:34:44;14.40;52.70
49385;DHT22;36795;45.028;38.968;2022-10-22T15:37:30;14.50;52.70
49385;DHT22;36795;45.028;38.968;2022-10-22T15:40:19;14.50;52.70
49385;DHT22;36795;45.028;38.968;2022-10-22T15:43:04;14.50;52.70
49385;DHT22;36795;45.028;38.968;2022-10-22T15:46:09;14.40;53.00
49385;DHT22;36795;45.028;38.968;2022-10-22T15:48:55;14.30;53.30
49385;DHT22;36795;45.028;38.968;2022-10-22T15:51:41;14.20;53.40
49385;DHT22;36795;45.028;38.968;2022-10-22T15:54:29;14.20;53.50
49385;DHT22;36795;45.028;38.968;2022-10-22T15:57:16;14.20;53.80
49385;DHT22;36795;45.028;38.968;2022-10-22T16:00:06;14.10;54.00
49385;DHT22;36795;45.028;38.968;2022-10-22T16:02:57;14.00;54.30
49385;DHT22;36795;45.028;38.968;2022-10-22T16:05:52;13.90;54.80
49385;DHT22;36795;45.028;38.968;2022-10-22T16:08:38;13.80;55.20
49385;DHT22;36795;45.028;38.968;2022-10-22T16:11:26;13.80;55.50
49385;DHT22;36795;45.028;38.968;2022-10-22T16:14:13;13.70;55.70
49385;DHT22;36795;45.028;38.968;2022-10-22T16:17:00;13.70;55.90
49385;DHT22;36795;45.028;38.968;2022-10-22T16:19:47;13.60;56.00
49385;DHT22;36795;45.028;38.968;2022-10-22T16:22:33;13.60;56.10
49385;DHT22;36795;45.028;38.968;2022-10-22T16:25:19;13.60;56.20
49385;DHT22;36795;45.028;38.968;2022-10-22T16:28:06;13.50;56.10
49385;DHT22;36795;45.028;38.968;2022-10-22T16:30:53;13.60;56.20
49385;DHT22;36795;45.028;38.968;2022-10-22T16:33:40;13.50;56.10
49385;DHT22;36795;45.028;38.968;2022-10-22T16:36:29;13.60;56.20
49385;DHT22;36795;45.028;38.968;2022-10-22T16:39:15;13.50;56.10
49385;DHT22;36795;45.028;38.968;2022-10-22T16:42:01;13.50;56.20
49385;DHT22;36795;45.028;38.968;2022-10-22T16:44:47;13.50;56.30
49385;DHT22;36795;45.028;38.968;2022-10-22T16:47:33;13.50;56.20
49385;DHT22;36795;45.028;38.968;2022-10-22T16:50:19;13.60;56.10
49385;DHT22;36795;45.028;38.968;2022-10-22T16:53:05;13.60;56.00
49385;DHT22;36795;45.028;38.968;2022-10-22T16:55:51;13.50;55.90
49385;DHT22;36795;45.028;38.968;2022-10-22T16:58:42;13.50;55.90
49385;DHT22;36795;45.028;38.968;2022-10-22T17:01:29;13.50;55.90
49385;DHT22;36795;45.028;38.968;2022-10-22T17:04:14;13.50;55.90
49385;DHT22;36795;45.028;38.968;2022-10-22T17:07:03;13.50;56.00
49385;DHT22;36795;45.028;38.968;2022-10-22T17:09:49;13.50;56.10
49385;DHT22;36795;45.028;38.968;2022-10-22T17:12:35;13.50;56.10
49385;DHT22;36795;45.028;38.968;2022-10-22T17:15:21;13.50;56.80
49385;DHT22;36795;45.028;38.968;2022-10-22T17:18:07;13.50;56.30
49385;DHT22;36795;45.028;38.968;2022-10-22T17:20:53;13.40;56.40
49385;DHT22;36795;45.028;38.968;2022-10-22T17:23:41;13.30;56.60
49385;DHT22;36795;45.028;38.968;2022-10-22T17:26:27;13.30;56.90
49385;DHT22;36795;45.028;38.968;2022-10-22T17:29:13;13.30;57.00
49385;DHT22;36795;45.028;38.968;2022-10-22T17:31:59;13.20;57.20
49385;DHT22;36795;45.028;38.968;2022-10-22T17:34:46;13.20;57.50
49385;DHT22;36795;45.028;38.968;2022-10-22T17:37:33;13.10;57.60
49385;DHT22;36795;45.028;38.968;2022-10-22T17:40:20;13.20;57.80
49385;DHT22;36795;45.028;38.968;2022-10-22T17:43:05;13.10;57.90
49385;DHT22;36795;45.028;38.968;2022-10-22T17:45:51;13.10;58.00
49385;DHT22;36795;45.028;38.968;2022-10-22T17:48:38;13.10;58.20
49385;DHT22;36795;45.028;38.968;2022-10-22T17:51:26;13.10;58.40
49385;DHT22;36795;45.028;38.968;2022-10-22T17:54:13;13.10;58.70
49385;DHT22;36795;45.028;38.968;2022-10-22T17:56:59;13.00;58.80
49385;DHT22;36795;45.028;38.968;2022-10-22T17:59:45;13.00;59.10
49385;DHT22;36795;45.028;38.968;2022-10-22T18:02:31;13.00;59.40
49385;DHT22;36795;45.028;38.968;2022-10-22T18:05:18;13.00;59.50
49385;DHT22;36795;45.028;38.968;2022-10-22T18:08:04;12.90;59.80
49385;DHT22;36795;45.028;38.968;2022-10-22T18:10:51;12.90;60.00
49385;DHT22;36795;45.028;38.968;2022-10-22T18:13:37;12.90;60.30
49385;DHT22;36795;45.028;38.968;2022-10-22T18:16:24;12.90;60.50
49385;DHT22;36795;45.028;38.968;2022-10-22T18:19:14;12.90;60.80
49385;DHT22;36795;45.028;38.968;2022-10-22T18:22:01;12.90;61.10
49385;DHT22;36795;45.028;38.968;2022-10-22T18:24:47;12.80;61.20
49385;DHT22;36795;45.028;38.968;2022-10-22T18:27:33;12.80;61.50
49385;DHT22;36795;45.028;38.968;2022-10-22T18:30:19;12.90;61.80
49385;DHT22;36795;45.028;38.968;2022-10-22T18:33:06;12.90;62.00
49385;DHT22;36795;45.028;38.968;2022-10-22T18:35:56;12.90;62.20
49385;DHT22;36795;45.028;38.968;2022-10-22T18:38:55;12.90;62.40
49385;DHT22;36795;45.028;38.968;2022-10-22T18:41:42;12.80;62.60
49385;DHT22;36795;45.028;38.968;2022-10-22T18:44:28;12.80;62.70
49385;DHT22;36795;45.028;38.968;2022-10-22T18:47:14;12.80;62.80
49385;DHT22;36795;45.028;38.968;2022-10-22T18:50:01;12.80;63.00
49385;DHT22;36795;45.028;38.968;2022-10-22T18:52:47;12.80;63.20
49385;DHT22;36795;45.028;38.968;2022-10-22T18:55:34;12.70;63.30
49385;DHT22;36795;45.028;38.968;2022-10-22T18:58:22;12.70;63.40
49385;DHT22;36795;45.028;38.968;2022-10-22T19:01:11;12.70;63.50
49385;DHT22;36795;45.028;38.968;2022-10-22T19:03:57;12.70;63.60
49385;DHT22;36795;45.028;38.968;2022-10-22T19:06:43;12.70;63.50
49385;DHT22;36795;45.028;38.968;2022-10-22T19:09:30;12.70;63.50